sensor_id;sensor_type;location;lat;lon;timestamp;P1;durP1;ratioP1;P2;durP2;ratioP2
57343;SDS011;43180;50.974;18.172;2023-11-18T00:04:10;13.10;;;6.60;;
57343;SDS011;43180;50.974;18.172;2023-11-18T00:14:07;7.30;;;3.30;;
57343;SDS011;43180;50.974;18.172;2023-11-18T00:24:01;14.10;;;6.20;;
57343;SDS011;43180;50.974;18.172;2023-11-18T00:33:44;11.20;;;5.10;;
57343;SDS011;43180;50.974;18.172;2023-11-18T00:43:26;14.70;;;6.20;;
57343;SDS011;43180;50.974;18.172;2023-11-18T00:53:08;11.60;;;5.50;;
57343;SDS011;43180;50.974;18.172;2023-11-18T01:02:52;19.90;;;6.90;;
57343;SDS011;43180;50.974;18.172;2023-11-18T01:12:36;9.60;;;5.00;;
57343;SDS011;43180;50.974;18.172;2023-11-18T01:22:20;11.30;;;3.60;;
57343;SDS011;43180;50.974;18.172;2023-11-18T01:32:06;4.40;;;2.60;;
57343;SDS011;43180;50.974;18.172;2023-11-18T01:41:53;3.90;;;2.30;;
57343;SDS011;43180;50.974;18.172;2023-11-18T01:51:41;6.90;;;2.80;;
57343;SDS011;43180;50.974;18.172;2023-11-18T02:01:25;4.10;;;3.60;;
57343;SDS011;43180;50.974;18.172;2023-11-18T02:11:30;7.90;;;3.70;;
57343;SDS011;43180;50.974;18.172;2023-11-18T02:21:17;2.80;;;2.60;;
57343;SDS011;43180;50.974;18.172;2023-11-18T02:31:03;9.70;;;3.80;;
57343;SDS011;43180;50.974;18.172;2023-11-18T02:41:11;7.00;;;4.20;;
57343;SDS011;43180;50.974;18.172;2023-11-18T02:51:01;4.10;;;2.50;;
57343;SDS011;43180;50.974;18.172;2023-11-18T03:00:44;6.20;;;3.10;;
57343;SDS011;43180;50.974;18.172;2023-11-18T03:10:31;5.60;;;2.60;;
57343;SDS011;43180;50.974;18.172;2023-11-18T03:20:19;2.20;;;2.00;;
57343;SDS011;43180;50.974;18.172;2023-11-18T03:30:06;1.70;;;1.40;;
57343;SDS011;43180;50.974;18.172;2023-11-18T03:39:52;4.70;;;2.20;;
57343;SDS011;43180;50.974;18.172;2023-11-18T03:49:41;1.60;;;1.50;;
57343;SDS011;43180;50.974;18.172;2023-11-18T03:59:25;10.30;;;3.80;;
57343;SDS011;43180;50.974;18.172;2023-11-18T04:09:08;11.70;;;4.70;;
57343;SDS011;43180;50.974;18.172;2023-11-18T04:18:53;9.50;;;4.80;;
57343;SDS011;43180;50.974;18.172;2023-11-18T04:28:37;18.30;;;9.10;;
57343;SDS011;43180;50.974;18.172;2023-11-18T04:38:25;27.40;;;14.30;;
57343;SDS011;43180;50.974;18.172;2023-11-18T04:48:08;10.70;;;3.90;;
57343;SDS011;43180;50.974;18.172;2023-11-18T04:57:54;32.00;;;11.00;;
57343;SDS011;43180;50.974;18.172;2023-11-18T05:07:41;16.10;;;8.60;;
57343;SDS011;43180;50.974;18.172;2023-11-18T05:17:26;36.80;;;16.00;;
57343;SDS011;43180;50.974;18.172;2023-11-18T05:27:11;33.90;;;11.50;;
57343;SDS011;43180;50.974;18.172;2023-11-18T05:36:54;30.60;;;11.70;;
57343;SDS011;43180;50.974;18.172;2023-11-18T05:46:45;29.90;;;10.60;;
57343;SDS011;43180;50.974;18.172;2023-11-18T05:56:34;21.50;;;9.70;;
57343;SDS011;43180;50.974;18.172;2023-11-18T06:06:20;24.10;;;10.80;;
57343;SDS011;43180;50.974;18.172;2023-11-18T06:16:18;26.30;;;10.30;;
57343;SDS011;43180;50.974;18.172;2023-11-18T06:26:06;24.40;;;9.60;;
57343;SDS011;43180;50.974;18.172;2023-11-18T06:35:55;28.50;;;9.70;;
57343;SDS011;43180;50.974;18.172;2023-11-18T06:45:44;33.20;;;11.00;;
57343;SDS011;43180;50.974;18.172;2023-11-18T06:55:36;32.70;;;12.60;;
57343;SDS011;43180;50.974;18.172;2023-11-18T07:05:20;28.30;;;11.00;;
57343;SDS011;43180;50.974;18.172;2023-11-18T07:15:13;13.40;;;8.70;;
57343;SDS011;43180;50.974;18.172;2023-11-18T07:24:57;18.70;;;9.70;;
57343;SDS011;43180;50.974;18.172;2023-11-18T07:34:40;10.90;;;5.20;;
57343;SDS011;43180;50.974;18.172;2023-11-18T07:44:43;13.00;;;4.60;;
57343;SDS011;43180;50.974;18.172;2023-11-18T07:56:52;18.10;;;10.30;;
57343;SDS011;43180;50.974;18.172;2023-11-18T08:06:39;13.20;;;6.20;;
57343;SDS011;43180;50.974;18.172;2023-11-18T08:16:33;8.80;;;4.70;;
57343;SDS011;43180;50.974;18.172;2023-11-18T08:26:16;12.00;;;2.20;;
57343;SDS011;43180;50.974;18.172;2023-11-18T08:35:59;8.30;;;5.00;;
57343;SDS011;43180;50.974;18.172;2023-11-18T08:45:46;7.30;;;4.00;;
57343;SDS011;43180;50.974;18.172;2023-11-18T08:53:09;12.00;;;7.10;;
57343;SDS011;43180;50.974;18.172;2023-11-18T09:13:30;3.70;;;2.70;;
57343;SDS011;43180;50.974;18.172;2023-11-18T09:23:18;5.80;;;4.10;;
57343;SDS011;43180;50.974;18.172;2023-11-18T09:33:18;9.00;;;5.10;;
57343;SDS011;43180;50.974;18.172;2023-11-18T09:43:36;3.80;;;3.50;;
57343;SDS011;43180;50.974;18.172;2023-11-18T09:53:33;11.80;;;7.40;;
57343;SDS011;43180;50.974;18.172;2023-11-18T10:03:44;11.20;;;5.30;;
57343;SDS011;43180;50.974;18.172;2023-11-18T10:13:34;17.60;;;8.90;;
57343;SDS011;43180;50.974;18.172;2023-11-18T10:23:37;19.60;;;6.70;;
57343;SDS011;43180;50.974;18.172;2023-11-18T10:33:35;13.80;;;7.70;;
57343;SDS011;43180;50.974;18.172;2023-11-18T10:43:22;14.30;;;6.40;;
57343;SDS011;43180;50.974;18.172;2023-11-18T10:53:37;4.20;;;3.90;;
57343;SDS011;43180;50.974;18.172;2023-11-18T11:03:27;11.00;;;7.50;;
57343;SDS011;43180;50.974;18.172;2023-11-18T11:13:18;16.80;;;7.90;;
57343;SDS011;43180;50.974;18.172;2023-11-18T11:34:04;15.90;;;7.20;;
57343;SDS011;43180;50.974;18.172;2023-11-18T11:44:02;19.40;;;7.60;;
57343;SDS011;43180;50.974;18.172;2023-11-18T11:54:20;13.20;;;7.20;;
57343;SDS011;43180;50.974;18.172;2023-11-18T12:04:50;20.20;;;9.10;;
57343;SDS011;43180;50.974;18.172;2023-11-18T12:14:55;14.30;;;6.00;;
57343;SDS011;43180;50.974;18.172;2023-11-18T12:25:48;18.10;;;8.50;;
57343;SDS011;43180;50.974;18.172;2023-11-18T12:50:10;24.50;;;11.80;;
57343;SDS011;43180;50.974;18.172;2023-11-18T13:00:11;13.50;;;7.60;;
57343;SDS011;43180;50.974;18.172;2023-11-18T13:10:02;20.50;;;9.70;;
57343;SDS011;43180;50.974;18.172;2023-11-18T13:19:49;26.00;;;10.30;;
57343;SDS011;43180;50.974;18.172;2023-11-18T13:29:38;26.60;;;12.10;;
57343;SDS011;43180;50.974;18.172;2023-11-18T13:39:31;26.10;;;11.00;;
57343;SDS011;43180;50.974;18.172;2023-11-18T13:49:36;22.10;;;11.10;;
57343;SDS011;43180;50.974;18.172;2023-11-18T13:59:24;17.90;;;7.00;;
57343;SDS011;43180;50.974;18.172;2023-11-18T14:09:17;26.00;;;9.60;;
57343;SDS011;43180;50.974;18.172;2023-11-18T14:19:05;21.30;;;7.50;;
57343;SDS011;43180;50.974;18.172;2023-11-18T14:28:53;34.70;;;16.10;;
57343;SDS011;43180;50.974;18.172;2023-11-18T14:38:36;24.00;;;11.00;;
57343;SDS011;43180;50.974;18.172;2023-11-18T14:48:21;19.10;;;6.90;;
57343;SDS011;43180;50.974;18.172;2023-11-18T14:53:12;37.50;;;20.30;;
57343;SDS011;43180;50.974;18.172;2023-11-18T15:02:57;18.50;;;8.00;;
57343;SDS011;43180;50.974;18.172;2023-11-18T15:22:48;28.10;;;10.50;;
57343;SDS011;43180;50.974;18.172;2023-11-18T15:32:38;17.50;;;7.80;;
57343;SDS011;43180;50.974;18.172;2023-11-18T15:42:27;29.80;;;12.70;;
57343;SDS011;43180;50.974;18.172;2023-11-18T15:52:11;44.60;;;14.10;;
57343;SDS011;43180;50.974;18.172;2023-11-18T16:01:54;135.50;;;44.70;;
57343;SDS011;43180;50.974;18.172;2023-11-18T16:18:53;34.70;;;13.00;;
57343;SDS011;43180;50.974;18.172;2023-11-18T16:28:38;45.20;;;20.10;;
57343;SDS011;43180;50.974;18.172;2023-11-18T16:38:24;76.40;;;24.70;;
57343;SDS011;43180;50.974;18.172;2023-11-18T16:48:06;43.20;;;14.90;;
57343;SDS011;43180;50.974;18.172;2023-11-18T16:57:50;78.10;;;27.00;;
57343;SDS011;43180;50.974;18.172;2023-11-18T17:07:47;39.90;;;22.70;;
57343;SDS011;43180;50.974;18.172;2023-11-18T17:17:31;131.10;;;40.90;;
57343;SDS011;43180;50.974;18.172;2023-11-18T17:22:23;180.70;;;81.60;;
57343;SDS011;43180;50.974;18.172;2023-11-18T17:32:07;114.30;;;42.00;;
57343;SDS011;43180;50.974;18.172;2023-11-18T17:41:50;79.60;;;26.80;;
57343;SDS011;43180;50.974;18.172;2023-11-18T17:51:34;72.00;;;24.70;;
57343;SDS011;43180;50.974;18.172;2023-11-18T18:01:16;83.40;;;24.70;;
57343;SDS011;43180;50.974;18.172;2023-11-18T18:11:03;180.40;;;63.90;;
57343;SDS011;43180;50.974;18.172;2023-11-18T18:20:54;161.40;;;72.10;;
57343;SDS011;43180;50.974;18.172;2023-11-18T18:33:02;126.50;;;60.50;;
57343;SDS011;43180;50.974;18.172;2023-11-18T18:42:48;28.70;;;12.40;;
57343;SDS011;43180;50.974;18.172;2023-11-18T18:52:33;62.90;;;26.20;;
57343;SDS011;43180;50.974;18.172;2023-11-18T19:02:17;97.90;;;31.60;;
57343;SDS011;43180;50.974;18.172;2023-11-18T19:12:01;110.20;;;44.80;;
57343;SDS011;43180;50.974;18.172;2023-11-18T19:21:44;60.50;;;20.90;;
57343;SDS011;43180;50.974;18.172;2023-11-18T19:31:31;41.60;;;15.50;;
57343;SDS011;43180;50.974;18.172;2023-11-18T19:41:16;103.80;;;40.30;;
57343;SDS011;43180;50.974;18.172;2023-11-18T19:51:01;99.00;;;24.80;;
57343;SDS011;43180;50.974;18.172;2023-11-18T20:00:50;67.10;;;26.50;;
57343;SDS011;43180;50.974;18.172;2023-11-18T20:10:35;39.90;;;20.20;;
57343;SDS011;43180;50.974;18.172;2023-11-18T20:20:21;71.60;;;25.50;;
57343;SDS011;43180;50.974;18.172;2023-11-18T20:30:12;55.10;;;18.00;;
57343;SDS011;43180;50.974;18.172;2023-11-18T20:39:58;113.10;;;33.40;;
57343;SDS011;43180;50.974;18.172;2023-11-18T20:49:41;55.60;;;18.50;;
57343;SDS011;43180;50.974;18.172;2023-11-18T20:59:27;77.60;;;22.00;;
57343;SDS011;43180;50.974;18.172;2023-11-18T21:04:18;173.80;;;63.20;;
57343;SDS011;43180;50.974;18.172;2023-11-18T21:14:01;38.00;;;13.90;;
57343;SDS011;43180;50.974;18.172;2023-11-18T21:23:49;106.70;;;29.50;;
57343;SDS011;43180;50.974;18.172;2023-11-18T21:33:33;100.50;;;32.40;;
57343;SDS011;43180;50.974;18.172;2023-11-18T21:43:15;87.00;;;32.80;;
57343;SDS011;43180;50.974;18.172;2023-11-18T21:52:59;77.50;;;22.60;;
57343;SDS011;43180;50.974;18.172;2023-11-18T22:02:44;129.80;;;43.20;;
57343;SDS011;43180;50.974;18.172;2023-11-18T22:12:30;83.00;;;34.10;;
57343;SDS011;43180;50.974;18.172;2023-11-18T22:22:15;70.00;;;24.50;;
57343;SDS011;43180;50.974;18.172;2023-11-18T22:32:00;108.20;;;35.10;;
57343;SDS011;43180;50.974;18.172;2023-11-18T22:41:48;68.60;;;25.20;;
57343;SDS011;43180;50.974;18.172;2023-11-18T22:51:36;54.00;;;20.20;;
57343;SDS011;43180;50.974;18.172;2023-11-18T23:01:21;37.50;;;13.10;;
57343;SDS011;43180;50.974;18.172;2023-11-18T23:11:13;33.00;;;11.90;;
57343;SDS011;43180;50.974;18.172;2023-11-18T23:21:07;53.20;;;19.40;;
57343;SDS011;43180;50.974;18.172;2023-11-18T23:30:51;45.10;;;18.30;;
57343;SDS011;43180;50.974;18.172;2023-11-18T23:40:38;34.00;;;12.70;;
57343;SDS011;43180;50.974;18.172;2023-11-18T23:50:23;48.00;;;20.10;;
